Time;durP1;ratioP1;P1;durP2;ratioP2;P2;SDS_P1;SDS_P2;PMS_P1;PMS_P2;Temp;Humidity;BMP_temperature;BMP_pressure;BME280_temperature;BME280_humidity;BME280_pressure;Samples;Min_cycle;Max_cycle;Signal;HPM_P1;HPM_P2
2021/04/06 00:00:23;;;;;;;2.83;1.80;;;3.00;99.90;;;;;;4342022;32;20078;-57
2021/04/06 00:02:55;;;;;;;2.22;1.60;;;3.10;99.90;;;;;;4372091;32;20068;-58
2021/04/06 00:05:22;;;;;;;1.90;1.62;;;3.00;99.90;;;;;;4370124;32;20094;-59
2021/04/06 00:07:49;;;;;;;1.92;1.70;;;3.00;99.90;;;;;;4351754;32;20050;-58
2021/04/06 00:10:40;;;;;;;3.35;1.60;;;2.90;99.90;;;;;;4354981;32;20145;-58
2021/04/06 00:13:06;;;;;;;2.15;1.90;;;2.80;99.90;;;;;;4376324;32;20527;-58
2021/04/06 00:15:32;;;;;;;3.35;1.92;;;2.80;99.90;;;;;;4362948;32;20201;-58
2021/04/06 00:18:00;;;;;;;2.80;2.00;;;2.80;99.90;;;;;;4353872;32;20147;-59
2021/04/06 00:20:28;;;;;;;3.75;2.03;;;2.70;99.90;;;;;;4361429;32;20554;-59
2021/04/06 00:22:57;;;;;;;2.53;1.90;;;2.80;99.90;;;;;;4371873;32;20077;-59
2021/04/06 00:25:30;;;;;;;2.70;2.05;;;2.80;99.90;;;;;;4380198;32;20082;-59
2021/04/06 00:27:56;;;;;;;3.00;1.83;;;2.70;99.90;;;;;;4350765;32;20086;-58
2021/04/06 00:30:25;;;;;;;2.30;2.03;;;2.70;99.90;;;;;;4353225;32;20086;-58
2021/04/06 00:33:05;;;;;;;2.28;2.03;;;2.80;99.90;;;;;;4343790;32;20070;-59
2021/04/06 00:35:34;;;;;;;2.25;1.85;;;2.80;99.90;;;;;;4363460;32;20057;-59
2021/04/06 00:38:01;;;;;;;2.40;2.03;;;2.80;99.90;;;;;;4365220;32;20072;-59
2021/04/06 00:40:27;;;;;;;3.05;2.30;;;2.60;99.90;;;;;;4368660;32;20511;-58
2021/04/06 00:43:03;;;;;;;2.55;2.10;;;2.70;99.90;;;;;;4349893;32;20163;-58
2021/04/06 00:45:30;;;;;;;2.60;2.00;;;2.70;99.90;;;;;;4355021;32;20105;-59
2021/04/06 00:48:09;;;;;;;2.95;2.33;;;2.80;99.90;;;;;;4375822;32;20148;-60
2021/04/06 00:50:37;;;;;;;3.10;2.35;;;2.60;99.90;;;;;;4381220;32;20087;-59
2021/04/06 00:53:03;;;;;;;2.62;2.10;;;2.60;99.90;;;;;;4369678;32;20084;-59
2021/04/06 00:55:40;;;;;;;2.72;2.15;;;2.60;99.90;;;;;;4374129;32;20104;-60
2021/04/06 00:58:16;;;;;;;2.67;2.20;;;2.60;99.90;;;;;;4343812;32;20070;-58
2021/04/06 01:00:43;;;;;;;2.65;2.00;;;2.60;99.90;;;;;;4378613;32;20072;-58
2021/04/06 01:03:14;;;;;;;3.50;2.30;;;2.60;99.90;;;;;;4369205;32;20094;-60
2021/04/06 01:05:59;;;;;;;2.37;2.10;;;2.50;99.90;;;;;;4363423;32;20177;-58
2021/04/06 01:08:30;;;;;;;3.05;2.30;;;2.50;99.90;;;;;;4381236;32;20524;-58
2021/04/06 01:10:56;;;;;;;2.97;2.17;;;2.40;99.90;;;;;;4358055;32;20505;-57
2021/04/06 01:13:27;;;;;;;3.90;2.20;;;2.40;99.90;;;;;;4369083;32;20093;-59
2021/04/06 01:15:56;;;;;;;4.05;2.37;;;2.30;99.90;;;;;;4353311;32;20078;-59
2021/04/06 01:18:23;;;;;;;5.37;2.35;;;2.30;99.90;;;;;;4388936;32;20086;-60
2021/04/06 01:20:56;;;;;;;2.30;2.00;;;2.20;99.90;;;;;;4351574;32;20121;-58
2021/04/06 01:23:23;;;;;;;3.28;2.42;;;2.20;99.90;;;;;;4355976;32;20583;-58
2021/04/06 01:25:58;;;;;;;3.17;2.40;;;2.20;99.90;;;;;;4376282;32;20093;-58
2021/04/06 01:28:30;;;;;;;3.05;2.28;;;2.20;99.90;;;;;;4362536;32;20086;-59
2021/04/06 01:30:59;;;;;;;3.20;2.40;;;2.20;99.90;;;;;;4377799;32;20086;-58
2021/04/06 01:33:31;;;;;;;2.58;2.20;;;2.10;99.90;;;;;;4380938;32;20057;-59
2021/04/06 01:36:06;;;;;;;3.03;2.30;;;2.00;99.90;;;;;;4387385;32;20081;-59
2021/04/06 01:38:35;;;;;;;3.78;2.50;;;2.00;99.90;;;;;;4356851;32;20093;-59
2021/04/06 01:41:03;;;;;;;3.55;2.53;;;2.00;99.90;;;;;;4349516;32;20132;-59
2021/04/06 01:43:30;;;;;;;3.08;2.15;;;2.10;99.90;;;;;;4354507;32;20518;-57
2021/04/06 01:46:04;;;;;;;2.75;2.15;;;2.00;99.90;;;;;;4387121;32;20089;-59
2021/04/06 01:48:32;;;;;;;3.50;2.40;;;2.00;99.90;;;;;;4361418;32;20120;-59
2021/04/06 01:50:59;;;;;;;3.03;2.20;;;1.90;99.90;;;;;;4358744;32;20434;-59
2021/04/06 01:53:26;;;;;;;2.87;2.20;;;1.90;99.90;;;;;;4366377;32;20072;-59
2021/04/06 01:55:58;;;;;;;4.03;2.53;;;1.90;99.90;;;;;;4362302;32;20081;-58
2021/04/06 01:58:27;;;;;;;4.28;2.42;;;2.00;99.90;;;;;;4366966;32;20066;-60
2021/04/06 02:01:07;;;;;;;2.78;2.17;;;2.00;99.90;;;;;;4358199;32;20076;-59
2021/04/06 02:03:38;;;;;;;3.25;2.60;;;2.10;99.90;;;;;;4386882;32;20073;-59
2021/04/06 02:06:06;;;;;;;3.10;2.60;;;2.10;99.90;;;;;;4353737;32;20073;-59
2021/04/06 02:08:32;;;;;;;4.50;2.85;;;2.20;99.90;;;;;;4359767;32;20073;-58
2021/04/06 02:10:58;;;;;;;5.03;2.62;;;2.10;99.90;;;;;;4357930;32;20154;-57
2021/04/06 02:13:24;;;;;;;4.30;2.60;;;2.20;99.90;;;;;;4378899;32;20552;-58
2021/04/06 02:16:00;;;;;;;4.10;3.03;;;2.30;99.90;;;;;;4374894;32;20174;-59
2021/04/06 02:18:29;;;;;;;3.35;2.55;;;2.30;99.90;;;;;;4367021;32;20073;-59
2021/04/06 02:20:59;;;;;;;4.53;2.60;;;2.30;99.90;;;;;;4354908;32;20073;-58
2021/04/06 02:23:27;;;;;;;3.80;2.70;;;2.20;99.90;;;;;;4354426;32;20622;-58
2021/04/06 02:25:54;;;;;;;3.30;2.62;;;2.20;99.90;;;;;;4363568;32;20105;-59
2021/04/06 02:28:22;;;;;;;3.25;2.50;;;2.20;99.90;;;;;;4374311;32;20081;-58
2021/04/06 02:30:55;;;;;;;4.12;2.60;;;2.30;99.90;;;;;;4385429;32;20162;-58
2021/04/06 02:33:36;;;;;;;3.40;2.70;;;2.30;99.90;;;;;;4362684;32;20493;-60
2021/04/06 02:36:07;;;;;;;4.35;2.50;;;2.40;99.90;;;;;;4366911;32;20105;-58
2021/04/06 02:38:43;;;;;;;4.25;2.50;;;2.40;99.90;;;;;;4362671;32;20594;-59
2021/04/06 02:41:15;;;;;;;3.95;2.45;;;2.50;99.90;;;;;;4374886;32;20078;-58
2021/04/06 02:43:53;;;;;;;4.50;2.70;;;2.50;99.90;;;;;;4352741;32;20580;-60
2021/04/06 02:46:26;;;;;;;3.92;2.55;;;2.60;99.90;;;;;;4383131;32;20137;-58
2021/04/06 02:48:54;;;;;;;5.97;2.90;;;2.60;99.90;;;;;;4374126;32;20073;-60
2021/04/06 02:51:20;;;;;;;6.28;2.75;;;2.70;99.90;;;;;;4356015;32;20168;-58
2021/04/06 02:53:48;;;;;;;4.95;2.55;;;2.80;99.90;;;;;;4365607;32;20066;-58
2021/04/06 02:56:33;;;;;;;3.20;2.30;;;2.80;99.90;;;;;;4364318;32;20503;-60
2021/04/06 02:59:38;;;;;;;5.47;2.92;;;2.70;99.90;;;;;;4364568;32;20089;-59
2021/04/06 03:02:04;;;;;;;5.80;3.03;;;2.70;99.90;;;;;;4357401;32;20093;-59
2021/04/06 03:04:31;;;;;;;4.45;2.87;;;2.70;99.90;;;;;;4365065;32;20504;-60
2021/04/06 03:06:57;;;;;;;3.30;2.55;;;2.80;99.90;;;;;;4364748;32;20120;-58
2021/04/06 03:09:25;;;;;;;5.87;2.67;;;2.90;99.90;;;;;;4356452;32;20078;-60
2021/04/06 03:11:54;;;;;;;5.93;2.97;;;2.70;99.90;;;;;;4377914;32;20562;-59
2021/04/06 03:14:24;;;;;;;5.47;3.45;;;2.90;99.90;;;;;;4374470;32;20608;-60
2021/04/06 03:16:52;;;;;;;4.65;2.80;;;3.00;99.90;;;;;;4372889;32;20151;-59
2021/04/06 03:19:22;;;;;;;4.65;3.12;;;3.00;99.90;;;;;;4387464;32;20065;-60
2021/04/06 03:21:49;;;;;;;5.57;3.05;;;3.10;99.90;;;;;;4343403;32;20078;-58
2021/04/06 03:24:15;;;;;;;4.20;2.60;;;3.10;99.90;;;;;;4364021;32;20174;-58
2021/04/06 03:26:41;;;;;;;7.37;2.83;;;3.20;99.90;;;;;;4358726;32;20072;-59
2021/04/06 03:29:08;;;;;;;6.90;2.92;;;3.30;99.90;;;;;;4382696;32;20506;-59
2021/04/06 03:31:34;;;;;;;9.40;2.87;;;3.30;99.90;;;;;;4375912;32;20070;-59
2021/04/06 03:34:01;;;;;;;4.78;2.60;;;3.30;99.90;;;;;;4354181;32;20082;-58
2021/04/06 03:36:32;;;;;;;4.47;2.70;;;3.50;99.90;;;;;;4388864;32;20062;-59
2021/04/06 03:39:10;;;;;;;7.75;3.12;;;3.50;99.90;;;;;;4372697;32;20080;-59
2021/04/06 03:41:36;;;;;;;4.07;2.60;;;3.70;99.90;;;;;;4368461;32;20081;-57
2021/04/06 03:44:12;;;;;;;6.05;2.95;;;3.70;99.90;;;;;;4376593;32;20102;-58
2021/04/06 03:46:42;;;;;;;;;;;3.70;99.90;;;;;;4357411;32;20113;-59
2021/04/06 03:49:13;;;;;;;4.90;2.65;;;3.60;99.90;;;;;;4370817;32;19977;-58
2021/04/06 03:51:57;;;;;;;6.47;3.00;;;3.60;99.90;;;;;;4389029;32;20089;-59
2021/04/06 03:54:42;;;;;;;11.85;3.87;;;3.80;99.90;;;;;;4356009;32;20544;-58
2021/04/06 03:57:53;;;;;;;13.48;5.62;;;3.60;99.90;;;;;;4385453;32;20098;-58
2021/04/06 04:00:20;;;;;;;18.27;7.85;;;3.20;99.90;;;;;;4368565;32;20089;-59
2021/04/06 04:02:46;;;;;;;18.42;8.48;;;3.10;99.90;;;;;;4382982;32;20092;-63
2021/04/06 04:05:12;;;;;;;12.23;6.40;;;3.10;99.90;;;;;;4369186;32;20147;-61
2021/04/06 04:07:38;;;;;;;15.57;6.62;;;3.20;99.90;;;;;;4364140;32;20085;-58
2021/04/06 04:10:07;;;;;;;14.98;6.47;;;3.20;99.90;;;;;;4366765;32;20081;-58
2021/04/06 04:12:33;;;;;;;11.02;5.97;;;3.30;99.90;;;;;;4385952;32;20084;-58
2021/04/06 04:14:59;;;;;;;9.40;4.12;;;3.30;99.90;;;;;;4381215;32;20058;-59
2021/04/06 04:17:26;;;;;;;9.05;4.03;;;3.40;99.90;;;;;;4387317;32;20074;-59
2021/04/06 04:19:53;;;;;;;9.88;4.85;;;3.40;99.90;;;;;;4380316;32;20093;-59
2021/04/06 04:22:19;;;;;;;15.07;6.20;;;3.50;99.90;;;;;;4363306;32;20447;-59
2021/04/06 04:24:45;;;;;;;10.73;5.85;;;3.40;99.90;;;;;;4382457;32;20595;-60
2021/04/06 04:27:12;;;;;;;14.02;5.78;;;3.40;99.90;;;;;;4383138;32;20074;-58
2021/04/06 04:29:38;;;;;;;11.48;5.15;;;3.70;99.90;;;;;;4387891;32;20128;-59
2021/04/06 04:32:13;;;;;;;9.70;6.00;;;3.80;99.90;;;;;;4378510;32;20645;-58
2021/04/06 04:34:41;;;;;;;12.73;5.12;;;3.70;99.90;;;;;;4384831;32;20081;-59
2021/04/06 04:37:07;;;;;;;14.02;5.75;;;3.80;99.90;;;;;;4372620;32;20081;-59
2021/04/06 04:39:34;;;;;;;10.32;5.28;;;3.80;99.90;;;;;;4366831;32;20066;-59
2021/04/06 04:42:00;;;;;;;8.68;5.22;;;4.00;99.90;;;;;;4376311;32;20081;-59
2021/04/06 04:44:26;;;;;;;9.82;5.87;;;4.00;99.90;;;;;;4368153;32;20076;-59
2021/04/06 04:46:52;;;;;;;7.35;2.83;;;4.20;99.90;;;;;;4385548;32;20085;-60
2021/04/06 04:49:18;;;;;;;6.03;2.35;;;4.10;99.90;;;;;;4363220;32;20182;-60
2021/04/06 04:51:45;;;;;;;4.28;2.55;;;4.20;99.90;;;;;;4387977;32;20068;-58
2021/04/06 04:54:11;;;;;;;5.15;2.25;;;4.20;99.90;;;;;;4353887;32;20073;-59
2021/04/06 04:56:37;;;;;;;8.07;2.65;;;4.20;99.90;;;;;;4372729;32;20170;-59
2021/04/06 04:59:03;;;;;;;5.55;2.58;;;4.10;99.90;;;;;;4383334;32;20110;-58
2021/04/06 05:01:30;;;;;;;4.70;2.35;;;4.20;99.90;;;;;;4380729;32;20081;-59
2021/04/06 05:03:57;;;;;;;7.70;2.45;;;4.30;99.90;;;;;;4377244;32;20071;-59
2021/04/06 05:06:23;;;;;;;4.72;2.53;;;4.20;99.90;;;;;;4385879;32;20166;-59
2021/04/06 05:08:49;;;;;;;6.07;2.67;;;4.20;99.90;;;;;;4382293;32;20527;-60
2021/04/06 05:11:15;;;;;;;7.03;2.78;;;4.20;99.90;;;;;;4382238;32;20092;-59
2021/04/06 05:13:41;;;;;;;5.80;2.53;;;4.30;99.90;;;;;;4382986;32;20081;-59
2021/04/06 05:16:07;;;;;;;2.87;2.00;;;4.40;99.90;;;;;;4379428;32;20235;-58
2021/04/06 05:18:34;;;;;;;3.87;2.20;;;4.50;99.90;;;;;;4360367;32;20093;-58
2021/04/06 05:21:00;;;;;;;4.30;1.85;;;4.40;99.90;;;;;;4382968;32;20170;-58
2021/04/06 05:23:26;;;;;;;3.15;1.70;;;4.50;99.90;;;;;;4354594;32;20088;-58
2021/04/06 05:25:54;;;;;;;3.35;2.12;;;4.50;99.90;;;;;;4388613;32;20084;-59
2021/04/06 05:28:21;;;;;;;2.83;1.83;;;4.50;99.90;;;;;;4361305;32;20101;-59
2021/04/06 05:30:47;;;;;;;3.10;2.08;;;4.70;99.90;;;;;;4358809;32;20085;-61
2021/04/06 05:33:13;;;;;;;3.97;1.90;;;4.70;99.90;;;;;;4376648;32;20077;-59
2021/04/06 05:35:40;;;;;;;7.30;2.37;;;4.60;99.90;;;;;;4365236;32;20070;-58
2021/04/06 05:38:06;;;;;;;6.18;2.97;;;4.60;99.90;;;;;;4362482;32;20074;-58
2021/04/06 05:40:32;;;;;;;4.85;2.17;;;4.50;99.90;;;;;;4379890;32;20452;-60
2021/04/06 05:43:01;;;;;;;2.55;1.83;;;4.60;99.90;;;;;;4356803;32;20066;-59
2021/04/06 05:45:27;;;;;;;3.72;2.20;;;4.80;99.90;;;;;;4349346;32;20098;-58
2021/04/06 05:47:55;;;;;;;3.80;2.28;;;4.60;99.90;;;;;;4375803;32;20526;-59
2021/04/06 05:50:21;;;;;;;2.70;1.70;;;4.60;99.90;;;;;;4354427;32;20069;-58
2021/04/06 05:52:48;;;;;;;1.85;1.08;;;4.80;99.90;;;;;;4346912;32;20529;-58
2021/04/06 05:55:14;;;;;;;4.55;2.22;;;4.70;99.90;;;;;;4361677;32;20160;-59
2021/04/06 05:57:40;;;;;;;2.97;2.25;;;4.70;99.90;;;;;;4355777;32;20081;-59
2021/04/06 06:00:11;;;;;;;3.92;1.60;;;4.70;99.90;;;;;;4373660;32;20105;-59
2021/04/06 06:02:37;;;;;;;5.40;2.65;;;4.60;99.90;;;;;;4377109;32;20062;-58
2021/04/06 06:05:05;;;;;;;4.78;2.28;;;4.60;99.90;;;;;;4368712;32;20145;-58
2021/04/06 06:07:33;;;;;;;6.03;2.58;;;4.80;99.90;;;;;;4386001;32;20074;-59
2021/04/06 06:10:32;;;;;;;5.45;2.62;;;4.80;99.90;;;;;;4340001;32;20572;-58
2021/04/06 06:13:25;;;;;;;2.55;1.17;;;5.00;99.90;;;;;;4367119;32;20164;-59
2021/04/06 06:16:16;;;;;;;4.82;2.17;;;4.90;99.90;;;;;;4375084;32;20071;-59
2021/04/06 06:19:00;;;;;;;6.35;2.40;;;4.90;99.90;;;;;;4374159;32;20097;-58
2021/04/06 06:21:46;;;;;;;3.25;2.00;;;4.90;99.90;;;;;;4378285;32;20504;-58
2021/04/06 06:24:26;;;;;;;1.43;1.27;;;4.70;99.90;;;;;;4362773;32;20105;-57
2021/04/06 06:26:55;;;;;;;3.92;2.87;;;4.70;99.90;;;;;;4365305;32;20088;-60
2021/04/06 06:29:23;;;;;;;3.65;2.55;;;4.70;99.90;;;;;;4365218;32;20480;-58
2021/04/06 06:31:53;;;;;;;8.18;2.67;;;4.60;99.90;;;;;;4374651;32;20174;-60
2021/04/06 06:34:28;;;;;;;6.20;2.20;;;4.60;99.90;;;;;;4356239;32;20100;-59
2021/04/06 06:37:16;;;;;;;6.55;2.50;;;4.70;99.90;;;;;;4357935;32;20070;-59
2021/04/06 06:39:56;;;;;;;5.93;2.80;;;4.60;99.90;;;;;;4386844;32;20069;-58
2021/04/06 06:42:49;;;;;;;8.73;2.97;;;4.60;99.90;;;;;;4365610;32;20105;-58
2021/04/06 06:45:23;;;;;;;7.10;2.85;;;4.60;99.90;;;;;;4356520;32;20144;-58
2021/04/06 06:47:57;;;;;;;2.95;2.42;;;4.60;99.90;;;;;;4364465;32;20058;-58
2021/04/06 06:50:24;;;;;;;4.28;2.78;;;4.60;99.90;;;;;;4384926;32;20174;-57
2021/04/06 06:52:55;;;;;;;3.90;2.30;;;4.60;99.90;;;;;;4349821;32;20089;-59
2021/04/06 06:55:25;;;;;;;4.32;2.97;;;4.60;99.90;;;;;;4352087;32;20460;-58
2021/04/06 06:58:18;;;;;;;4.97;2.90;;;4.50;99.90;;;;;;4358774;32;20077;-59
2021/04/06 07:00:52;;;;;;;4.43;2.97;;;4.60;99.90;;;;;;4374545;32;20077;-59
2021/04/06 07:03:18;;;;;;;3.97;2.78;;;4.60;99.90;;;;;;4366852;32;20059;-57
2021/04/06 07:05:45;;;;;;;2.70;2.03;;;4.50;99.90;;;;;;4374230;32;20464;-59
2021/04/06 07:08:11;;;;;;;4.43;2.47;;;4.40;99.90;;;;;;4361395;32;20058;-59
2021/04/06 07:10:40;;;;;;;6.43;3.03;;;4.40;99.90;;;;;;4379779;32;20054;-58
2021/04/06 07:13:12;;;;;;;4.12;3.28;;;4.40;99.90;;;;;;4368699;32;20070;-59
2021/04/06 07:15:41;;;;;;;5.80;2.90;;;4.40;99.90;;;;;;4378442;32;20077;-59
2021/04/06 07:18:14;;;;;;;7.47;2.97;;;4.40;99.90;;;;;;4350341;32;20066;-59
2021/04/06 07:20:44;;;;;;;5.12;3.58;;;4.40;99.90;;;;;;4377352;32;20175;-57
2021/04/06 07:23:16;;;;;;;5.43;3.42;;;4.30;99.90;;;;;;4358721;32;20074;-58
2021/04/06 07:25:44;;;;;;;6.28;3.97;;;4.40;99.90;;;;;;4373619;32;20125;-61
2021/04/06 07:28:15;;;;;;;10.07;5.30;;;4.40;99.90;;;;;;4383140;32;20073;-57
2021/04/06 07:30:42;;;;;;;11.90;5.40;;;4.30;99.90;;;;;;4353835;32;20089;-57
2021/04/06 07:33:08;;;;;;;6.75;4.97;;;4.30;99.90;;;;;;4363325;32;20089;-58
2021/04/06 07:35:36;;;;;;;11.60;5.20;;;4.20;99.90;;;;;;4352408;32;20153;-61
2021/04/06 07:38:02;;;;;;;8.10;5.28;;;4.30;99.90;;;;;;4376816;32;20116;-59
2021/04/06 07:40:32;;;;;;;8.15;5.05;;;4.30;99.90;;;;;;4355696;32;20518;-59
2021/04/06 07:42:58;;;;;;;9.73;4.93;;;4.40;99.90;;;;;;4376118;32;20082;-59
2021/04/06 07:45:24;;;;;;;9.82;5.60;;;4.30;99.90;;;;;;4361838;32;20457;-57
2021/04/06 07:47:51;;;;;;;8.82;4.90;;;4.20;99.90;;;;;;4365183;32;20114;-57
2021/04/06 07:50:48;;;;;;;9.98;5.05;;;4.50;99.90;;;;;;4350852;32;20110;-60
2021/04/06 07:53:28;;;;;;;11.43;5.47;;;4.50;99.90;;;;;;4371634;32;20070;-58
2021/04/06 07:55:56;;;;;;;10.98;5.40;;;4.60;99.90;;;;;;4370452;32;20096;-57
2021/04/06 07:58:48;;;;;;;9.73;5.65;;;4.50;99.90;;;;;;4358810;32;20070;-58
2021/04/06 08:01:19;;;;;;;11.40;5.53;;;4.50;99.90;;;;;;4375647;32;20569;-58
2021/04/06 08:03:54;;;;;;;7.30;5.05;;;4.60;99.90;;;;;;4355140;32;20160;-61
2021/04/06 08:06:27;;;;;;;6.77;4.77;;;4.70;99.90;;;;;;4387537;32;20610;-58
2021/04/06 08:08:53;;;;;;;11.15;5.20;;;4.70;99.90;;;;;;4348086;32;20554;-58
2021/04/06 08:11:22;;;;;;;5.97;4.07;;;4.70;99.90;;;;;;4368581;32;20061;-57
2021/04/06 08:13:48;;;;;;;6.90;3.90;;;4.40;99.90;;;;;;4363539;32;20166;-58
2021/04/06 08:16:18;;;;;;;11.95;4.80;;;4.40;99.90;;;;;;4348739;32;20076;-58
2021/04/06 08:18:51;;;;;;;7.03;3.97;;;4.40;99.90;;;;;;4358510;32;20510;-58
2021/04/06 08:21:20;;;;;;;9.63;4.20;;;4.40;99.90;;;;;;4370492;32;20074;-58
2021/04/06 08:23:47;;;;;;;7.00;4.45;;;4.40;99.90;;;;;;4381602;32;20059;-59
2021/04/06 08:26:36;;;;;;;9.00;4.43;;;4.40;99.90;;;;;;4383129;32;20489;-59
2021/04/06 08:29:23;;;;;;;7.37;4.62;;;4.40;99.90;;;;;;4370191;32;20058;-57
2021/04/06 08:32:13;;;;;;;7.70;4.03;;;4.50;99.90;;;;;;4389910;32;20070;-58
2021/04/06 08:34:53;;;;;;;5.28;3.90;;;4.40;99.90;;;;;;4370378;32;20070;-58
2021/04/06 08:37:35;;;;;;;8.52;4.60;;;4.40;99.90;;;;;;4347892;32;20073;-58
2021/04/06 08:40:04;;;;;;;5.00;3.35;;;4.40;99.90;;;;;;4359065;32;20069;-58
2021/04/06 08:42:31;;;;;;;6.43;3.53;;;4.50;99.90;;;;;;4358608;32;20564;-58
2021/04/06 08:44:58;;;;;;;7.65;4.82;;;4.40;99.90;;;;;;4383826;32;20081;-58
2021/04/06 08:47:46;;;;;;;10.73;4.25;;;4.40;99.90;;;;;;4344340;32;20078;-58
2021/04/06 08:50:38;;;;;;;6.72;4.65;;;4.50;99.90;;;;;;4370520;32;20142;-59
2021/04/06 08:53:06;;;;;;;5.75;3.80;;;4.50;99.90;;;;;;4373600;32;20062;-60
2021/04/06 08:55:32;;;;;;;7.50;3.87;;;4.60;99.90;;;;;;4378799;32;20107;-58
2021/04/06 08:57:59;;;;;;;8.25;3.90;;;4.60;99.90;;;;;;4375098;32;20058;-58
2021/04/06 09:00:27;;;;;;;4.65;3.42;;;4.50;99.90;;;;;;4366027;32;20078;-60
2021/04/06 09:03:06;;;;;;;7.22;4.53;;;4.50;99.90;;;;;;4366479;32;20164;-59
2021/04/06 09:05:33;;;;;;;8.85;3.80;;;4.50;99.90;;;;;;4363849;32;20090;-60
2021/04/06 09:07:59;;;;;;;7.05;3.97;;;4.70;99.90;;;;;;4364915;32;20141;-63
2021/04/06 09:10:39;;;;;;;9.13;4.25;;;4.70;99.90;;;;;;4374126;32;20075;-59
2021/04/06 09:13:05;;;;;;;5.80;4.10;;;4.70;99.90;;;;;;4363757;32;20182;-59
2021/04/06 09:15:31;;;;;;;6.65;3.83;;;4.60;99.90;;;;;;4379245;32;20069;-60
2021/04/06 09:18:02;;;;;;;6.97;3.55;;;4.60;99.90;;;;;;4381080;32;20157;-60
2021/04/06 09:20:28;;;;;;;5.00;3.15;;;4.60;99.90;;;;;;4364823;32;20069;-60
2021/04/06 09:22:54;;;;;;;4.07;3.00;;;4.30;99.90;;;;;;4357530;32;20064;-60
2021/04/06 09:25:28;;;;;;;3.47;2.37;;;4.30;99.90;;;;;;4356615;32;20065;-59
2021/04/06 09:27:57;;;;;;;7.15;2.70;;;4.40;99.90;;;;;;4374855;32;20077;-59
2021/04/06 09:30:33;;;;;;;4.68;3.00;;;4.50;99.90;;;;;;4351149;32;20167;-60
2021/04/06 09:33:11;;;;;;;4.20;2.90;;;4.50;99.90;;;;;;4371475;32;20094;-59
2021/04/06 09:35:37;;;;;;;4.00;3.03;;;4.60;99.90;;;;;;4348001;32;20066;-58
2021/04/06 09:38:03;;;;;;;4.05;2.78;;;4.50;99.90;;;;;;4347711;32;20449;-59
2021/04/06 09:40:41;;;;;;;4.85;3.10;;;4.50;99.90;;;;;;4363266;32;20508;-58
2021/04/06 09:43:07;;;;;;;5.05;3.05;;;4.30;99.90;;;;;;4370649;32;20073;-60
2021/04/06 09:45:34;;;;;;;4.68;2.95;;;4.20;99.90;;;;;;4360239;32;20085;-59
2021/04/06 09:48:00;;;;;;;4.85;3.40;;;4.10;99.90;;;;;;4380716;32;20073;-58
2021/04/06 09:50:27;;;;;;;4.57;2.65;;;4.20;99.90;;;;;;4349435;32;20490;-59
2021/04/06 09:52:54;;;;;;;4.03;2.30;;;4.00;99.90;;;;;;4381204;32;20154;-58
2021/04/06 09:55:22;;;;;;;3.10;2.60;;;4.00;99.90;;;;;;4358160;32;20085;-60
2021/04/06 09:57:51;;;;;;;5.80;2.90;;;4.10;99.90;;;;;;4369215;32;20094;-60
2021/04/06 10:00:21;;;;;;;3.75;2.58;;;4.20;99.90;;;;;;4358485;32;20094;-60
2021/04/06 10:03:06;;;;;;;3.33;2.08;;;4.20;99.90;;;;;;4360467;32;20120;-66
2021/04/06 10:05:33;;;;;;;3.30;2.20;;;4.10;99.90;;;;;;4371067;32;20113;-58
2021/04/06 10:07:59;;;;;;;3.25;2.20;;;3.90;99.90;;;;;;4369671;32;20157;-60
2021/04/06 10:10:29;;;;;;;3.05;2.35;;;3.80;99.90;;;;;;4360089;32;20150;-60
2021/04/06 10:12:56;;;;;;;3.97;2.50;;;3.70;99.90;;;;;;4373194;32;20511;-58
2021/04/06 10:15:26;;;;;;;1.70;1.60;;;3.70;99.90;;;;;;4363485;32;20081;-59
2021/04/06 10:17:53;;;;;;;4.10;2.40;;;3.80;99.90;;;;;;4360985;32;20588;-62
2021/04/06 10:20:26;;;;;;;2.87;2.40;;;3.90;99.90;;;;;;4345526;32;20073;-59
2021/04/06 10:22:57;;;;;;;5.15;2.50;;;4.10;99.90;;;;;;4366057;32;20464;-60
2021/04/06 10:25:33;;;;;;;2.85;2.15;;;4.00;99.90;;;;;;4349566;32;20239;-59
2021/04/06 10:28:01;;;;;;;2.95;2.37;;;4.20;99.90;;;;;;4371741;32;20166;-61
2021/04/06 10:30:48;;;;;;;3.55;2.40;;;4.30;99.90;;;;;;4361215;32;20069;-59
2021/04/06 10:33:19;;;;;;;4.07;2.60;;;4.20;99.90;;;;;;4362973;32;20132;-59
2021/04/06 10:36:00;;;;;;;3.55;2.42;;;4.30;99.90;;;;;;4363060;32;20120;-58
2021/04/06 10:38:36;;;;;;;4.00;2.45;;;4.30;99.90;;;;;;4356863;32;20138;-59
2021/04/06 10:41:12;;;;;;;5.05;3.20;;;4.20;99.90;;;;;;4373271;32;20073;-58
2021/04/06 10:43:41;;;;;;;5.15;3.58;;;4.10;99.90;;;;;;4384149;32;20163;-58
2021/04/06 10:46:11;;;;;;;3.75;2.90;;;4.00;99.90;;;;;;4360938;32;20151;-58
2021/04/06 10:48:40;;;;;;;3.78;2.70;;;4.10;99.90;;;;;;4360224;32;20511;-61
2021/04/06 10:51:19;;;;;;;3.50;2.50;;;4.20;99.90;;;;;;4368775;32;20077;-58
2021/04/06 10:53:50;;;;;;;3.60;2.37;;;4.20;99.90;;;;;;4362995;32;20073;-59
2021/04/06 10:56:22;;;;;;;3.78;2.90;;;4.00;99.90;;;;;;4372170;32;20499;-60
2021/04/06 10:59:07;;;;;;;3.37;2.67;;;4.00;99.90;;;;;;4379340;32;20066;-58
2021/04/06 11:01:45;;;;;;;3.75;2.67;;;3.90;99.90;;;;;;4373919;32;20106;-62
2021/04/06 11:04:25;;;;;;;3.20;2.40;;;3.90;99.90;;;;;;4378671;32;20106;-60
2021/04/06 11:06:57;;;;;;;3.50;2.58;;;3.80;99.90;;;;;;4365964;32;20609;-61
2021/04/06 11:09:45;;;;;;;3.87;2.40;;;3.70;99.90;;;;;;4364213;32;20505;-56
2021/04/06 11:12:12;;;;;;;4.30;2.75;;;3.60;99.90;;;;;;4379417;32;20062;-59
2021/04/06 11:14:43;;;;;;;3.10;2.42;;;3.70;99.90;;;;;;4381120;32;20172;-58
2021/04/06 11:17:10;;;;;;;3.35;2.60;;;4.00;99.90;;;;;;4384511;32;20185;-58
2021/04/06 11:19:39;;;;;;;3.10;2.45;;;3.80;99.90;;;;;;4383490;32;20516;-59
2021/04/06 11:22:11;;;;;;;5.00;2.70;;;3.80;99.90;;;;;;4351139;32;20137;-59
2021/04/06 11:24:38;;;;;;;4.60;2.58;;;3.80;99.90;;;;;;4364106;32;20074;-60
2021/04/06 11:27:05;;;;;;;2.72;2.20;;;3.80;99.90;;;;;;4369440;32;20105;-60
2021/04/06 11:29:33;;;;;;;2.67;2.15;;;3.80;99.90;;;;;;4379819;32;20077;-59
2021/04/06 11:32:03;;;;;;;4.87;2.67;;;3.70;99.90;;;;;;4384725;32;20062;-61
2021/04/06 11:34:30;;;;;;;4.53;2.95;;;3.70;99.90;;;;;;4358213;32;20058;-60
2021/04/06 11:36:56;;;;;;;2.85;2.28;;;3.70;99.90;;;;;;4354621;32;20073;-61
2021/04/06 11:39:29;;;;;;;2.85;2.17;;;3.70;99.90;;;;;;4363616;32;20158;-61
2021/04/06 11:41:55;;;;;;;3.60;2.53;;;3.70;99.90;;;;;;4353303;32;20573;-61
2021/04/06 11:44:22;;;;;;;3.55;2.75;;;3.70;99.90;;;;;;4348713;32;20146;-61
2021/04/06 11:46:48;;;;;;;3.95;2.80;;;3.90;99.90;;;;;;4377604;32;20069;-60
2021/04/06 11:49:16;;;;;;;3.85;2.53;;;3.80;99.90;;;;;;4365130;32;20521;-62
2021/04/06 11:51:42;;;;;;;3.53;2.75;;;3.80;99.90;;;;;;4353375;32;20227;-61
2021/04/06 11:54:10;;;;;;;4.03;2.60;;;4.00;99.90;;;;;;4353810;32;20073;-62
2021/04/06 11:56:36;;;;;;;3.80;2.80;;;3.80;99.90;;;;;;4348040;32;20167;-62
2021/04/06 11:59:03;;;;;;;2.67;2.25;;;3.80;99.90;;;;;;4359509;32;20153;-61
2021/04/06 12:01:30;;;;;;;3.62;2.60;;;3.90;99.90;;;;;;4387030;32;20074;-59
2021/04/06 12:03:56;;;;;;;4.55;2.60;;;3.70;99.90;;;;;;4374901;32;20471;-59
2021/04/06 12:06:26;;;;;;;3.45;2.65;;;3.80;99.90;;;;;;4350096;32;20062;-60
2021/04/06 12:08:53;;;;;;;4.53;2.85;;;3.70;99.90;;;;;;4364501;32;20058;-59
2021/04/06 12:11:20;;;;;;;4.70;3.10;;;3.70;99.90;;;;;;4386139;32;20480;-60
2021/04/06 12:13:47;;;;;;;5.75;3.17;;;3.70;99.90;;;;;;4357368;32;20518;-62
2021/04/06 12:16:14;;;;;;;4.05;2.95;;;3.60;99.90;;;;;;4362362;32;20184;-61
2021/04/06 12:18:40;;;;;;;5.03;2.60;;;3.50;99.90;;;;;;4375445;32;20173;-62
2021/04/06 12:21:11;;;;;;;3.85;2.70;;;3.40;99.90;;;;;;4384876;32;20062;-62
2021/04/06 12:23:37;;;;;;;4.25;2.75;;;3.50;99.90;;;;;;4372035;32;20059;-60
2021/04/06 12:26:04;;;;;;;3.65;2.80;;;3.50;99.90;;;;;;4364213;32;20087;-61
2021/04/06 12:28:30;;;;;;;4.53;2.80;;;3.60;99.90;;;;;;4375113;32;20074;-60
2021/04/06 12:30:56;;;;;;;3.85;2.78;;;3.60;99.90;;;;;;4389337;32;20080;-60
2021/04/06 12:33:23;;;;;;;4.18;2.87;;;3.50;99.90;;;;;;4362359;32;20493;-62
2021/04/06 12:35:49;;;;;;;4.12;2.67;;;3.50;99.90;;;;;;4387868;32;20084;-63
2021/04/06 12:38:16;;;;;;;3.60;2.60;;;3.40;99.90;;;;;;4377825;32;20157;-63
2021/04/06 12:40:42;;;;;;;3.35;2.80;;;3.40;99.90;;;;;;4373130;32;20062;-59
2021/04/06 12:43:08;;;;;;;4.82;2.80;;;3.40;99.90;;;;;;4354753;32;20177;-61
2021/04/06 12:45:34;;;;;;;3.20;2.58;;;3.40;99.90;;;;;;4381493;32;20057;-60
2021/04/06 12:48:01;;;;;;;4.35;2.75;;;3.30;99.90;;;;;;4382116;32;20508;-60
2021/04/06 12:50:27;;;;;;;3.60;2.62;;;3.40;99.90;;;;;;4375596;32;20125;-60
2021/04/06 12:52:54;;;;;;;3.42;2.78;;;3.50;99.90;;;;;;4374361;32;20538;-59
2021/04/06 12:55:20;;;;;;;7.40;3.22;;;3.40;99.90;;;;;;4356530;32;20096;-58
2021/04/06 12:57:48;;;;;;;3.83;2.42;;;3.40;99.90;;;;;;4363843;32;20089;-61
2021/04/06 13:00:15;;;;;;;5.22;2.87;;;3.50;99.90;;;;;;4376142;32;20074;-60
2021/04/06 13:02:41;;;;;;;4.15;2.80;;;3.50;99.90;;;;;;4347384;32;20062;-60
2021/04/06 13:05:09;;;;;;;4.75;3.20;;;3.40;99.90;;;;;;4357802;32;20565;-59
2021/04/06 13:07:35;;;;;;;4.15;3.00;;;3.40;99.90;;;;;;4380488;32;20167;-60
2021/04/06 13:10:01;;;;;;;4.12;2.85;;;3.40;99.90;;;;;;4347623;32;20066;-59
2021/04/06 13:12:28;;;;;;;3.92;2.78;;;3.40;99.90;;;;;;4381345;32;20539;-59